createdAt,value
2018-03-06T00:01:47.429Z,55.77
2018-03-06T00:04:14.963Z,51.10
2018-03-06T00:06:42.503Z,54.23
2018-03-06T00:09:10.780Z,52.97
2018-03-06T00:11:39.085Z,50.20
2018-03-06T00:14:06.635Z,54.67
2018-03-06T00:16:34.149Z,52.57
2018-03-06T00:19:01.684Z,56.47
2018-03-06T00:21:29.325Z,57.87
2018-03-06T00:23:56.856Z,56.80
2018-03-06T00:26:24.388Z,52.43
2018-03-06T00:28:51.905Z,53.17
2018-03-06T00:31:19.462Z,53.07
2018-03-06T00:33:47.002Z,52.27
2018-03-06T00:36:14.514Z,52.23
2018-03-06T00:38:42.803Z,52.27
2018-03-06T00:41:11.128Z,54.73
2018-03-06T00:43:38.644Z,50.50
2018-03-06T00:46:06.228Z,54.57
2018-03-06T00:48:33.756Z,54.87
2018-03-06T00:51:02.059Z,58.37
2018-03-06T00:53:29.588Z,53.30
2018-03-06T00:55:57.902Z,54.30
2018-03-06T00:58:25.425Z,55.40
2018-03-06T01:00:53.688Z,55.10
2018-03-06T01:03:21.997Z,50.17
2018-03-06T01:05:49.520Z,58.17
2018-03-06T01:08:17.807Z,54.57
2018-03-06T01:10:46.098Z,54.80
2018-03-06T01:13:13.647Z,55.80
2018-03-06T01:15:41.229Z,55.80
2018-03-06T01:18:08.745Z,56.90
2018-03-06T01:20:37.044Z,56.83
2018-03-06T01:23:04.566Z,55.13
2018-03-06T01:25:32.097Z,54.73
2018-03-06T01:27:59.601Z,55.80
2018-03-06T01:30:27.883Z,55.47
2018-03-06T01:32:55.414Z,56.77
2018-03-06T01:35:22.945Z,53.83
2018-03-06T01:37:50.581Z,56.00
2018-03-06T01:40:18.228Z,51.60
2018-03-06T01:42:45.735Z,53.20
2018-03-06T01:45:13.292Z,54.40
2018-03-06T01:47:40.831Z,55.03
2018-03-06T01:50:08.356Z,54.87
2018-03-06T01:52:35.863Z,56.17
2018-03-06T01:55:03.381Z,58.30
2018-03-06T01:57:31.879Z,57.93
2018-03-06T01:59:59.451Z,56.30
2018-03-06T02:02:26.916Z,56.03
2018-03-06T02:04:54.539Z,54.87
2018-03-06T02:07:22.055Z,55.27
2018-03-06T02:09:50.351Z,54.83
2018-03-06T02:12:17.869Z,53.00
2018-03-06T02:14:45.396Z,53.80
2018-03-06T02:17:12.925Z,58.13
2018-03-06T02:19:40.454Z,54.13
2018-03-06T02:22:08.759Z,54.37
2018-03-06T02:24:36.264Z,53.03
2018-03-06T02:27:03.793Z,52.17
2018-03-06T02:29:31.449Z,56.30
2018-03-06T02:31:58.985Z,56.47
2018-03-06T02:34:26.501Z,53.57
2018-03-06T02:36:54.112Z,56.87
2018-03-06T02:39:21.629Z,54.30
2018-03-06T02:41:49.908Z,57.53
2018-03-06T02:44:18.189Z,54.67
2018-03-06T02:46:46.486Z,52.80
2018-03-06T02:49:14.012Z,54.30
2018-03-06T02:51:41.564Z,53.90
2018-03-06T02:54:09.075Z,55.60
2018-03-06T02:56:36.595Z,52.30
2018-03-06T02:59:04.900Z,55.00
2018-03-06T03:01:32.421Z,53.90
2018-03-06T03:04:00.735Z,57.33
2018-03-06T03:06:28.295Z,53.70
2018-03-06T03:08:55.874Z,56.20
2018-03-06T03:11:23.412Z,55.50
2018-03-06T03:13:50.951Z,55.10
2018-03-06T03:16:18.483Z,58.30
2018-03-06T03:18:46.780Z,56.07
2018-03-06T03:21:14.389Z,56.63
2018-03-06T03:23:41.905Z,54.00
2018-03-06T03:26:09.428Z,54.83
2018-03-06T03:28:37.741Z,56.20
2018-03-06T03:31:05.697Z,58.07
2018-03-06T03:33:33.235Z,57.40
2018-03-06T03:36:01.495Z,54.80
2018-03-06T03:38:29.016Z,57.60
2018-03-06T03:40:56.544Z,56.57
2018-03-06T03:43:24.069Z,55.07
2018-03-06T03:45:52.353Z,59.53
2018-03-06T03:48:20.660Z,62.90
2018-03-06T03:50:48.217Z,56.20
2018-03-06T03:53:15.759Z,57.53
2018-03-06T03:55:43.295Z,60.90
2018-03-06T03:58:11.584Z,60.30
2018-03-06T04:00:39.884Z,56.37
2018-03-06T04:03:07.391Z,56.87
2018-03-06T04:05:35.004Z,57.83
2018-03-06T04:08:02.518Z,58.87
2018-03-06T04:10:30.789Z,54.30
2018-03-06T04:12:58.318Z,58.73
2018-03-06T04:15:26.655Z,56.50
2018-03-06T04:17:54.249Z,56.17
2018-03-06T04:20:21.798Z,57.17
2018-03-06T04:22:49.324Z,59.67
2018-03-06T04:25:16.869Z,56.40
2018-03-06T04:27:45.196Z,52.70
2018-03-06T04:30:12.823Z,57.20
2018-03-06T04:32:40.326Z,60.00
2018-03-06T04:35:07.894Z,56.20
2018-03-06T04:37:35.508Z,60.43
2018-03-06T04:40:03.072Z,54.30
2018-03-06T04:42:30.571Z,56.17
2018-03-06T04:44:58.099Z,57.10
2018-03-06T04:47:25.614Z,57.00
2018-03-06T04:49:53.152Z,54.90
2018-03-06T04:52:21.483Z,55.80
2018-03-06T04:54:49.030Z,61.20
2018-03-06T04:57:16.669Z,56.90
2018-03-06T04:59:44.203Z,56.27
2018-03-06T05:02:12.477Z,59.80
2018-03-06T05:04:39.992Z,56.10
2018-03-06T05:07:07.524Z,59.70
2018-03-06T05:09:35.049Z,52.87
2018-03-06T05:12:03.341Z,57.47
2018-03-06T05:14:30.868Z,57.73
2018-03-06T05:16:58.481Z,59.13
2018-03-06T05:19:25.996Z,60.70
2018-03-06T05:21:54.306Z,56.40
2018-03-06T05:24:21.885Z,59.27
2018-03-06T05:26:49.453Z,58.70
2018-03-06T05:29:16.940Z,57.00
2018-03-06T05:31:44.465Z,55.03
2018-03-06T05:34:11.967Z,60.40
2018-03-06T05:36:40.273Z,59.70
2018-03-06T05:39:07.810Z,61.90
2018-03-06T05:41:35.383Z,58.47
2018-03-06T05:44:02.898Z,55.73
2018-03-06T05:46:30.493Z,59.60
2018-03-06T05:48:58.061Z,57.97
2018-03-06T05:51:25.656Z,60.20
2018-03-06T05:53:53.188Z,56.47
2018-03-06T05:56:20.701Z,55.10
2018-03-06T05:58:49.007Z,56.80
2018-03-06T06:01:16.565Z,57.30
2018-03-06T06:03:44.074Z,54.97
2018-03-06T06:06:11.612Z,57.37
2018-03-06T06:08:39.265Z,56.30
2018-03-06T06:11:06.798Z,56.60
2018-03-06T06:13:34.358Z,60.97
2018-03-06T06:16:01.856Z,60.03
2018-03-06T06:18:29.378Z,56.40
2018-03-06T06:20:56.917Z,59.57
2018-03-06T06:23:25.226Z,59.67
2018-03-06T06:25:52.712Z,56.60
2018-03-06T06:28:20.233Z,56.30
2018-03-06T06:30:47.733Z,57.40
2018-03-06T06:33:15.286Z,58.60
2018-03-06T06:35:42.893Z,58.30
2018-03-06T06:38:10.470Z,59.10
2018-03-06T06:40:37.973Z,56.07
2018-03-06T06:43:05.489Z,55.40
2018-03-06T06:45:33.019Z,59.40
2018-03-06T06:48:00.512Z,55.77
2018-03-06T06:50:28.036Z,58.47
2018-03-06T06:52:55.549Z,58.30
2018-03-06T06:55:23.036Z,60.93
2018-03-06T06:57:51.433Z,54.97
2018-03-06T07:00:19.000Z,60.17
2018-03-06T07:02:46.538Z,58.67
2018-03-06T07:05:14.092Z,58.53
2018-03-06T07:07:41.595Z,61.00
2018-03-06T07:10:09.096Z,58.00
2018-03-06T07:12:37.407Z,61.20
2018-03-06T07:15:04.959Z,54.27
2018-03-06T07:17:32.462Z,57.07
2018-03-06T07:20:10.812Z,58.90
2018-03-06T07:22:38.367Z,61.90
2018-03-06T07:25:05.857Z,61.97
2018-03-06T07:27:33.375Z,59.53
2018-03-06T07:30:01.750Z,62.83
2018-03-06T07:32:30.047Z,56.87
2018-03-06T07:34:57.549Z,62.60
2018-03-06T07:37:25.084Z,58.97
2018-03-06T07:39:52.702Z,56.70
2018-03-06T07:42:20.217Z,60.00
2018-03-06T07:44:47.718Z,60.07
2018-03-06T07:47:15.199Z,57.37
2018-03-06T07:49:42.685Z,59.73
2018-03-06T07:52:10.232Z,60.60
2018-03-06T07:54:37.729Z,59.00
2018-03-06T07:57:06.025Z,60.43
2018-03-06T07:59:33.553Z,64.83
2018-03-06T08:02:01.866Z,58.90
2018-03-06T08:04:29.427Z,61.60
2018-03-06T08:06:56.930Z,59.03
2018-03-06T08:09:25.944Z,61.40
2018-03-06T08:11:55.465Z,59.57
2018-03-06T08:14:22.958Z,60.37
2018-03-06T08:16:50.448Z,59.70
2018-03-06T08:19:17.996Z,61.90
2018-03-06T08:21:45.589Z,61.57
2018-03-06T08:24:13.096Z,60.77
2018-03-06T08:26:40.599Z,57.37
2018-03-06T08:29:08.891Z,62.87
2018-03-06T08:31:36.389Z,63.90
2018-03-06T08:34:03.883Z,58.07
2018-03-06T08:36:32.143Z,60.40
2018-03-06T08:39:00.399Z,62.97
2018-03-06T08:41:27.886Z,59.17
2018-03-06T08:43:56.169Z,58.03
2018-03-06T08:46:23.664Z,56.63
2018-03-06T08:48:51.179Z,57.70
2018-03-06T08:51:19.471Z,58.00
2018-03-06T08:53:46.986Z,56.30
2018-03-06T08:56:14.574Z,58.40
2018-03-06T08:58:42.134Z,58.43
2018-03-06T09:01:09.629Z,60.63
2018-03-06T09:03:37.226Z,58.87
2018-03-06T09:06:04.680Z,59.50
2018-03-06T09:08:32.947Z,55.90
2018-03-06T09:11:00.448Z,63.10
2018-03-06T09:13:27.959Z,58.30
2018-03-06T09:15:55.547Z,60.40
2018-03-06T09:18:23.043Z,57.50
2018-03-06T09:20:50.570Z,57.27
2018-03-06T09:23:18.071Z,59.07
2018-03-06T09:25:45.560Z,61.10
2018-03-06T09:28:13.836Z,59.07
2018-03-06T09:30:42.108Z,59.37
2018-03-06T09:33:10.429Z,61.00
2018-03-06T09:35:37.938Z,61.73
2018-03-06T09:38:06.216Z,60.60
2018-03-06T09:40:34.481Z,58.97
2018-03-06T09:43:02.764Z,58.07
2018-03-06T09:45:31.120Z,62.93
2018-03-06T09:47:58.598Z,57.93
2018-03-06T09:50:26.868Z,59.20
2018-03-06T09:52:55.135Z,67.27
2018-03-06T09:55:22.656Z,57.87
2018-03-06T09:57:50.149Z,60.33
2018-03-06T10:00:17.648Z,61.07
2018-03-06T10:02:45.191Z,57.10
2018-03-06T10:05:12.691Z,57.10
2018-03-06T10:07:40.216Z,56.33
2018-03-06T10:10:07.713Z,59.43
2018-03-06T10:12:35.225Z,59.43
2018-03-06T10:15:02.752Z,60.63
2018-03-06T10:17:31.015Z,57.50
2018-03-06T10:19:58.608Z,60.13
2018-03-06T10:22:26.124Z,61.07
2018-03-06T10:24:53.597Z,59.40
2018-03-06T10:27:21.888Z,59.60
2018-03-06T10:29:50.142Z,57.60
2018-03-06T10:32:17.725Z,59.93
2018-03-06T10:34:45.975Z,59.47
2018-03-06T10:37:13.579Z,59.20
2018-03-06T10:39:41.086Z,60.40
2018-03-06T10:42:08.687Z,63.30
2018-03-06T10:44:36.193Z,60.40
2018-03-06T10:47:03.745Z,65.77
2018-03-06T10:49:31.247Z,60.10
2018-03-06T10:51:58.769Z,59.80
2018-03-06T10:54:26.279Z,61.37
2018-03-06T10:56:53.836Z,58.57
2018-03-06T10:59:21.369Z,61.60
2018-03-06T11:01:49.627Z,59.53
2018-03-06T11:04:17.922Z,60.90
2018-03-06T11:06:45.444Z,59.33
2018-03-06T11:09:12.939Z,64.63
2018-03-06T11:11:40.464Z,60.40
2018-03-06T11:14:07.963Z,63.70
2018-03-06T11:16:35.503Z,63.00
2018-03-06T11:19:03.766Z,63.97
2018-03-06T11:21:32.062Z,61.77
2018-03-06T11:23:59.573Z,63.13
2018-03-06T11:26:27.075Z,67.07
2018-03-06T11:28:54.598Z,67.40
2018-03-06T11:31:22.083Z,63.60
2018-03-06T11:33:50.507Z,63.10
2018-03-06T11:36:18.010Z,65.20
2018-03-06T11:38:46.272Z,64.50
2018-03-06T11:41:14.553Z,66.03
2018-03-06T11:43:42.061Z,62.07
2018-03-06T11:46:09.599Z,66.37
2018-03-06T11:48:37.083Z,60.03
2018-03-06T11:51:04.601Z,64.43
2018-03-06T11:53:32.165Z,68.57
2018-03-06T11:55:59.680Z,66.43
2018-03-06T11:58:27.973Z,63.70
2018-03-06T12:00:56.249Z,64.70
2018-03-06T12:03:24.528Z,68.87
2018-03-06T12:05:52.804Z,67.87
2018-03-06T12:08:21.092Z,67.07
2018-03-06T12:10:48.670Z,64.80
2018-03-06T12:13:16.198Z,63.90
2018-03-06T12:15:43.715Z,63.77
2018-03-06T12:18:11.215Z,67.17
2018-03-06T12:20:38.720Z,67.63
2018-03-06T12:23:06.219Z,69.80
2018-03-06T12:25:34.594Z,64.67
2018-03-06T12:28:02.873Z,64.57
2018-03-06T12:30:30.436Z,64.17
2018-03-06T12:32:57.943Z,67.90
2018-03-06T12:35:25.480Z,67.70
2018-03-06T12:37:53.001Z,71.27
2018-03-06T12:40:21.281Z,70.23
2018-03-06T12:42:48.857Z,67.13
2018-03-06T12:45:16.382Z,69.00
2018-03-06T12:47:44.652Z,66.97
2018-03-06T12:50:12.949Z,67.90
2018-03-06T12:52:40.452Z,72.10
2018-03-06T12:55:07.968Z,68.73
2018-03-06T12:57:35.459Z,71.60
2018-03-06T13:00:02.958Z,69.07
2018-03-06T13:02:31.227Z,69.73
2018-03-06T13:04:59.508Z,72.00
2018-03-06T13:07:27.833Z,68.63
2018-03-06T13:09:55.353Z,70.97
2018-03-06T13:12:22.920Z,67.40
2018-03-06T13:14:50.420Z,71.50
2018-03-06T13:17:18.030Z,73.30
2018-03-06T13:19:45.536Z,67.77
2018-03-06T13:22:13.024Z,69.67
2018-03-06T13:24:41.319Z,72.17
2018-03-06T13:27:08.855Z,70.43
2018-03-06T13:29:37.125Z,73.53
2018-03-06T13:32:05.412Z,70.83
2018-03-06T13:34:33.667Z,74.70
2018-03-06T13:37:01.173Z,73.17
2018-03-06T13:39:28.709Z,72.50
2018-03-06T13:41:56.209Z,70.33
2018-03-06T13:44:23.731Z,70.67
2018-03-06T13:46:51.233Z,72.13
2018-03-06T13:49:18.789Z,72.97
2018-03-06T13:51:46.302Z,72.00
2018-03-06T13:54:13.811Z,75.57
2018-03-06T13:56:41.326Z,74.23
2018-03-06T13:59:08.846Z,68.97
2018-03-06T14:01:37.145Z,69.20
2018-03-06T14:04:04.644Z,69.83
2018-03-06T14:06:32.169Z,69.77
2018-03-06T14:08:59.677Z,70.87
2018-03-06T14:11:27.196Z,72.10
2018-03-06T14:13:54.691Z,69.70
2018-03-06T14:16:22.200Z,68.33
2018-03-06T14:18:49.695Z,68.90
2018-03-06T14:21:17.297Z,72.70
2018-03-06T14:23:44.860Z,70.10
2018-03-06T14:26:12.428Z,69.93
2018-03-06T14:28:39.936Z,70.03
2018-03-06T14:31:08.233Z,68.67
2018-03-06T14:33:36.528Z,67.70
2018-03-06T14:36:04.062Z,68.23
2018-03-06T14:38:32.343Z,70.10
2018-03-06T14:41:00.621Z,67.97
2018-03-06T14:43:28.895Z,69.90
2018-03-06T14:45:57.151Z,66.60
2018-03-06T14:48:24.759Z,67.47
2018-03-06T14:50:53.041Z,68.57
2018-03-06T14:53:20.551Z,69.43
2018-03-06T14:55:48.840Z,68.60
2018-03-06T14:58:17.118Z,68.40
2018-03-06T15:00:44.627Z,77.07
2018-03-06T15:03:12.120Z,73.20
2018-03-06T15:05:40.431Z,70.40
2018-03-06T15:08:07.935Z,66.73
2018-03-06T15:10:35.537Z,65.70
2018-03-06T15:13:03.041Z,67.83
2018-03-06T15:15:30.631Z,68.63
2018-03-06T15:17:58.966Z,63.03
2018-03-06T15:20:26.437Z,67.03
2018-03-06T15:22:53.923Z,70.90
2018-03-06T15:25:21.497Z,70.13
2018-03-06T15:27:59.465Z,65.40
2018-03-06T15:30:26.979Z,67.97
2018-03-06T15:32:54.469Z,70.70
2018-03-06T15:35:22.763Z,67.23
2018-03-06T15:37:51.126Z,68.03
2018-03-06T15:40:19.429Z,69.67
2018-03-06T15:42:46.998Z,66.27
2018-03-06T15:45:14.582Z,68.80
2018-03-06T15:47:42.134Z,68.97
2018-03-06T15:50:09.650Z,65.73
2018-03-06T15:52:37.962Z,68.50
2018-03-06T15:55:05.541Z,69.97
2018-03-06T15:57:33.104Z,67.60
2018-03-06T16:00:00.659Z,66.40
2018-03-06T16:02:28.198Z,67.80
2018-03-06T16:04:55.846Z,67.03
2018-03-06T16:07:23.388Z,66.20
2018-03-06T16:09:51.203Z,66.27
2018-03-06T16:12:18.720Z,66.50
2018-03-06T16:14:46.247Z,66.27
2018-03-06T16:17:14.556Z,67.03
2018-03-06T16:19:42.130Z,65.23
2018-03-06T16:22:09.672Z,68.40
2018-03-06T16:24:37.231Z,67.60
2018-03-06T16:27:04.784Z,66.43
2018-03-06T16:29:32.306Z,67.03
2018-03-06T16:32:10.116Z,66.27
2018-03-06T16:34:37.649Z,63.77
2018-03-06T16:37:05.958Z,66.90
2018-03-06T16:39:33.508Z,66.80
2018-03-06T16:42:01.041Z,63.90
2018-03-06T16:44:28.601Z,64.83
2018-03-06T16:46:56.897Z,65.73
2018-03-06T16:49:25.189Z,63.30
2018-03-06T16:51:52.756Z,62.37
2018-03-06T16:54:20.296Z,63.70
2018-03-06T16:56:47.972Z,68.07
2018-03-06T16:59:15.576Z,68.40
2018-03-06T17:01:43.113Z,71.57
2018-03-06T17:04:10.644Z,70.40
2018-03-06T17:06:38.155Z,70.47
2018-03-06T17:09:05.742Z,67.70
2018-03-06T17:11:33.274Z,65.57
2018-03-06T17:14:01.700Z,62.83
2018-03-06T17:16:29.233Z,64.50
2018-03-06T17:18:56.761Z,64.67
2018-03-06T17:21:24.302Z,68.47
2018-03-06T17:23:51.982Z,66.27
2018-03-06T17:26:19.672Z,65.77
2018-03-06T17:28:47.220Z,70.67
2018-03-06T17:31:15.517Z,67.93
2018-03-06T17:33:43.090Z,64.50
2018-03-06T17:36:10.692Z,63.57
2018-03-06T17:38:38.252Z,65.60
2018-03-06T17:41:05.958Z,66.20
2018-03-06T17:43:33.505Z,61.80
2018-03-06T17:46:01.045Z,66.10
2018-03-06T17:48:29.363Z,63.00
2018-03-06T17:50:57.381Z,67.00
2018-03-06T17:53:25.696Z,65.53
2018-03-06T17:55:53.460Z,68.50
2018-03-06T17:58:21.124Z,68.23
2018-03-06T18:00:48.676Z,64.10
2018-03-06T18:03:16.237Z,66.40
2018-03-06T18:05:43.787Z,64.93
2018-03-06T18:08:11.389Z,68.00
2018-03-06T18:10:38.938Z,65.60
2018-03-06T18:13:06.485Z,65.20
2018-03-06T18:15:34.142Z,63.60
2018-03-06T18:18:01.708Z,65.17
2018-03-06T18:20:29.292Z,60.73
2018-03-06T18:22:56.828Z,65.50
2018-03-06T18:25:24.424Z,65.20
2018-03-06T18:27:52.731Z,64.43
2018-03-06T18:30:20.248Z,64.00
2018-03-06T18:32:48.553Z,63.70
2018-03-06T18:35:16.079Z,61.73
2018-03-06T18:37:44.371Z,66.70
2018-03-06T18:40:12.674Z,66.10
2018-03-06T18:42:40.225Z,62.37
2018-03-06T18:45:07.754Z,62.33
2018-03-06T18:47:36.179Z,62.63
2018-03-06T18:50:03.697Z,62.47
2018-03-06T18:52:32.010Z,64.93
2018-03-06T18:54:59.566Z,64.00
2018-03-06T18:57:27.143Z,62.33
2018-03-06T19:03:25.432Z,63.13
2018-03-06T19:06:04.855Z,56.27
2018-03-06T19:08:32.433Z,61.73
2018-03-06T19:10:59.962Z,59.00
2018-03-06T19:13:27.517Z,62.07
2018-03-06T19:15:55.058Z,58.07
2018-03-06T19:18:22.586Z,73.30
2018-03-06T19:20:50.900Z,62.73
2018-03-06T19:23:18.421Z,57.20
2018-03-06T19:25:45.932Z,60.47
2018-03-06T19:28:13.473Z,58.20
2018-03-06T19:30:41.013Z,59.60
2018-03-06T19:33:09.301Z,58.20
2018-03-06T19:35:47.276Z,50.53
2018-03-06T19:38:15.560Z,49.10
2018-03-06T19:40:43.833Z,45.93
2018-03-06T19:43:12.109Z,46.20
2018-03-06T19:45:40.383Z,43.50
2018-03-06T19:48:08.750Z,44.53
2018-03-06T19:50:37.066Z,46.57
2018-03-06T19:53:04.636Z,44.23
2018-03-06T19:55:32.165Z,45.87
2018-03-06T19:57:59.668Z,47.03
2018-03-06T20:00:27.212Z,47.50
2018-03-06T20:02:54.709Z,56.50
2018-03-06T20:05:23.020Z,48.27
2018-03-06T20:07:50.529Z,47.20
2018-03-06T20:10:18.083Z,48.23
2018-03-06T20:12:45.714Z,56.40
2018-03-06T20:15:16.765Z,51.93
2018-03-06T20:17:44.272Z,49.93
2018-03-06T20:20:11.761Z,51.37
2018-03-06T20:22:39.273Z,46.40
2018-03-06T20:25:13.310Z,48.63
2018-03-06T20:27:40.831Z,49.13
2018-03-06T20:30:09.091Z,46.20
2018-03-06T20:32:43.095Z,47.13
2018-03-06T20:35:10.626Z,47.80
2018-03-06T20:37:38.271Z,46.73
2018-03-06T20:40:11.562Z,49.37
2018-03-06T20:42:39.109Z,52.20
2018-03-06T20:45:06.801Z,49.97
2018-03-06T20:47:34.299Z,48.93
2018-03-06T20:50:01.804Z,51.00
2018-03-06T20:52:29.364Z,54.20
2018-03-06T20:55:04.578Z,51.00
2018-03-06T20:57:32.149Z,51.10
2018-03-06T20:59:59.715Z,47.13
2018-03-06T21:02:27.228Z,52.10
2018-03-06T21:04:55.511Z,51.87
2018-03-06T21:07:23.785Z,51.47
2018-03-06T21:09:52.060Z,51.90
2018-03-06T21:12:20.324Z,51.70
2018-03-06T21:14:48.653Z,51.30
2018-03-06T21:17:17.126Z,52.50
2018-03-06T21:19:44.672Z,55.30
2018-03-06T21:22:12.313Z,53.07
2018-03-06T21:24:39.878Z,54.47
2018-03-06T21:27:07.379Z,52.13
2018-03-06T21:29:34.900Z,51.20
2018-03-06T21:32:02.397Z,49.87
2018-03-06T21:34:29.921Z,50.40
2018-03-06T21:36:57.444Z,46.00
2018-03-06T21:39:25.732Z,46.90
2018-03-06T21:41:53.289Z,44.87
2018-03-06T21:44:20.802Z,44.60
2018-03-06T21:46:48.301Z,46.57
2018-03-06T21:49:16.551Z,40.33
2018-03-06T21:51:44.145Z,41.37
2018-03-06T21:54:11.640Z,38.60
2018-03-06T21:56:39.143Z,40.03
2018-03-06T21:59:07.424Z,40.30
2018-03-06T22:01:34.972Z,40.97
2018-03-06T22:04:03.275Z,40.03
2018-03-06T22:06:30.774Z,39.47
2018-03-06T22:08:58.288Z,36.87
2018-03-06T22:11:25.774Z,37.57
2018-03-06T22:13:53.270Z,34.97
2018-03-06T22:16:21.520Z,35.23
2018-03-06T22:18:49.041Z,36.20
2018-03-06T22:21:16.581Z,34.13
2018-03-06T22:23:44.087Z,34.73
2018-03-06T22:26:11.593Z,32.80
2018-03-06T22:28:39.111Z,31.17
2018-03-06T22:31:07.401Z,30.03
2018-03-06T22:33:35.691Z,30.60
2018-03-06T22:36:03.245Z,29.93
2018-03-06T22:38:31.496Z,30.80
2018-03-06T22:40:59.772Z,28.00
2018-03-06T22:43:27.269Z,29.33
2018-03-06T22:45:54.795Z,27.50
2018-03-06T22:48:23.070Z,28.73
2018-03-06T22:50:51.348Z,28.40
2018-03-06T22:53:19.641Z,26.90
2018-03-06T22:55:47.193Z,27.83
2018-03-06T22:58:14.741Z,28.63
2018-03-06T23:00:43.016Z,28.27
2018-03-06T23:03:11.275Z,27.97
2018-03-06T23:05:39.542Z,25.63
2018-03-06T23:08:07.118Z,27.57
2018-03-06T23:10:34.711Z,27.00
2018-03-06T23:13:02.252Z,27.40
2018-03-06T23:15:29.803Z,26.50
2018-03-06T23:17:58.080Z,27.00
2018-03-06T23:20:26.351Z,28.23
2018-03-06T23:22:54.616Z,28.70
2018-03-06T23:25:22.906Z,26.17
2018-03-06T23:27:50.431Z,25.93
2018-03-06T23:30:17.919Z,29.57
2018-03-06T23:32:45.409Z,27.07
2018-03-06T23:35:12.907Z,27.50
2018-03-06T23:37:40.402Z,26.33
2018-03-06T23:40:07.918Z,26.10
2018-03-06T23:42:35.418Z,25.83
2018-03-06T23:45:02.935Z,27.00
2018-03-06T23:47:31.018Z,26.90
2018-03-06T23:49:59.284Z,27.07
2018-03-06T23:52:27.549Z,26.33
2018-03-06T23:54:55.047Z,27.43
2018-03-06T23:57:22.540Z,26.07
2018-03-06T23:59:50.150Z,25.40
